createdAt,value
2023-04-16T00:00:30.694Z,11.90
2023-04-16T00:03:18.198Z,13.50
2023-04-16T00:05:45.501Z,15.27
2023-04-16T00:08:12.978Z,13.88
2023-04-16T00:10:40.073Z,10.20
2023-04-16T00:13:07.456Z,9.25
2023-04-16T00:15:34.531Z,6.90
2023-04-16T00:18:01.956Z,11.45
2023-04-16T00:20:28.940Z,10.60
2023-04-16T00:22:56.270Z,9.32
2023-04-16T00:25:23.356Z,8.02
2023-04-16T00:27:50.767Z,15.82
2023-04-16T00:30:17.894Z,15.85
2023-04-16T00:32:45.367Z,11.50
2023-04-16T00:35:12.425Z,10.05
2023-04-16T00:37:39.780Z,9.75
2023-04-16T00:40:07.479Z,16.60
2023-04-16T00:42:38.200Z,11.70
2023-04-16T00:45:06.189Z,11.55
2023-04-16T00:47:34.001Z,16.17
2023-04-16T00:50:02.809Z,14.98
2023-04-16T00:52:37.355Z,17.38
2023-04-16T00:55:07.354Z,17.55
2023-04-16T00:57:34.779Z,9.32
2023-04-16T01:00:02.921Z,13.43
2023-04-16T01:02:30.540Z,11.00
2023-04-16T01:04:57.887Z,11.23
2023-04-16T01:07:25.403Z,9.43
2023-04-16T01:09:52.678Z,9.40
2023-04-16T01:12:20.041Z,9.60
2023-04-16T01:14:50.619Z,7.10
2023-04-16T01:17:17.938Z,8.85
2023-04-16T01:19:45.084Z,11.73
2023-04-16T01:22:16.317Z,9.20
2023-04-16T01:24:43.438Z,11.88
2023-04-16T01:27:11.327Z,13.65
2023-04-16T01:29:38.329Z,7.38
2023-04-16T01:32:05.772Z,8.20
2023-04-16T01:34:35.947Z,9.48
2023-04-16T01:37:04.832Z,9.32
2023-04-16T01:39:32.043Z,9.00
2023-04-16T01:41:59.417Z,8.43
2023-04-16T01:44:26.525Z,8.00
2023-04-16T01:46:53.942Z,11.23
2023-04-16T01:49:22.232Z,11.27
2023-04-16T01:51:49.549Z,10.07
2023-04-16T01:54:19.820Z,10.23
2023-04-16T01:56:47.279Z,11.90
2023-04-16T01:59:14.644Z,9.13
2023-04-16T02:01:43.328Z,7.70
2023-04-16T02:04:11.985Z,7.68
2023-04-16T02:06:39.914Z,9.52
2023-04-16T02:09:07.162Z,8.98
2023-04-16T02:11:34.982Z,8.60
2023-04-16T02:14:02.030Z,8.90
2023-04-16T02:16:29.460Z,10.57
2023-04-16T02:19:04.969Z,7.43
2023-04-16T02:21:35.975Z,8.07
2023-04-16T02:24:03.297Z,9.63
2023-04-16T02:26:31.745Z,7.20
2023-04-16T02:29:04.842Z,9.07
2023-04-16T02:31:41.534Z,10.73
2023-04-16T02:34:09.773Z,10.63
2023-04-16T02:36:37.216Z,6.80
2023-04-16T02:39:04.936Z,9.30
2023-04-16T02:41:32.311Z,7.22
2023-04-16T02:43:59.463Z,8.18
2023-04-16T02:46:27.001Z,5.65
2023-04-16T02:48:54.145Z,4.97
2023-04-16T02:51:21.581Z,7.15
2023-04-16T02:53:51.341Z,10.70
2023-04-16T02:56:18.754Z,8.63
2023-04-16T02:58:45.906Z,7.43
2023-04-16T03:01:13.286Z,12.60
2023-04-16T03:03:40.448Z,19.27
2023-04-16T03:06:07.856Z,5.97
2023-04-16T03:08:34.895Z,7.18
2023-04-16T03:11:02.400Z,8.23
2023-04-16T03:13:29.370Z,6.18
2023-04-16T03:15:57.015Z,13.20
2023-04-16T03:18:28.003Z,7.75
2023-04-16T03:20:55.434Z,11.57
2023-04-16T03:23:22.531Z,8.77
2023-04-16T03:25:51.155Z,10.27
2023-04-16T03:28:24.014Z,12.63
2023-04-16T03:30:52.868Z,10.95
2023-04-16T03:33:21.138Z,9.80
2023-04-16T03:35:58.410Z,12.07
2023-04-16T03:38:28.200Z,8.63
2023-04-16T03:40:57.595Z,13.65
2023-04-16T03:43:25.113Z,7.72
2023-04-16T03:45:53.191Z,11.70
2023-04-16T03:48:23.916Z,12.45
2023-04-16T03:50:53.408Z,8.32
2023-04-16T03:53:21.088Z,9.15
2023-04-16T03:55:52.842Z,7.75
2023-04-16T03:58:21.243Z,9.38
2023-04-16T04:00:53.060Z,7.18
2023-04-16T04:03:20.355Z,10.02
2023-04-16T04:05:50.488Z,9.75
2023-04-16T04:08:24.459Z,7.65
2023-04-16T04:10:52.425Z,7.60
2023-04-16T04:13:21.232Z,10.85
2023-04-16T04:15:49.701Z,8.63
2023-04-16T04:18:16.854Z,15.55
2023-04-16T04:20:47.851Z,9.13
2023-04-16T04:23:20.062Z,7.93
2023-04-16T04:25:48.364Z,10.30
2023-04-16T04:28:15.801Z,9.57
2023-04-16T04:30:43.312Z,9.18
2023-04-16T04:33:11.004Z,10.93
2023-04-16T04:35:39.115Z,9.77
2023-04-16T04:38:06.528Z,9.00
2023-04-16T04:40:34.730Z,9.05
2023-04-16T04:43:04.428Z,7.85
2023-04-16T04:45:32.255Z,8.07
2023-04-16T04:47:59.796Z,9.50
2023-04-16T04:50:27.130Z,9.65
2023-04-16T04:52:54.302Z,7.18
2023-04-16T04:55:22.693Z,9.07
2023-04-16T04:57:51.042Z,10.85
2023-04-16T05:00:18.535Z,6.40
2023-04-16T05:02:53.025Z,7.93
2023-04-16T05:05:20.589Z,6.63
2023-04-16T05:07:47.664Z,7.10
2023-04-16T05:10:17.492Z,24.05
2023-04-16T05:12:47.689Z,8.02
2023-04-16T05:15:16.440Z,9.13
2023-04-16T05:17:43.538Z,7.50
2023-04-16T05:20:13.746Z,8.52
2023-04-16T05:22:41.350Z,7.70
2023-04-16T05:25:09.004Z,8.15
2023-04-16T05:27:37.079Z,14.68
2023-04-16T05:30:04.943Z,7.90
2023-04-16T05:32:32.010Z,9.27
2023-04-16T05:34:59.267Z,8.52
2023-04-16T05:37:26.320Z,7.35
2023-04-16T05:39:53.680Z,8.05
2023-04-16T05:42:20.753Z,8.52
2023-04-16T05:44:48.152Z,5.90
2023-04-16T05:47:15.527Z,6.40
2023-04-16T05:49:42.841Z,9.38
2023-04-16T05:52:10.092Z,11.68
2023-04-16T05:54:37.391Z,7.53
2023-04-16T05:57:04.402Z,8.23
2023-04-16T05:59:31.849Z,7.07
2023-04-16T06:01:59.059Z,9.45
2023-04-16T06:04:26.533Z,8.27
2023-04-16T06:06:53.586Z,8.43
2023-04-16T06:09:20.955Z,7.18
2023-04-16T06:11:48.516Z,11.27
2023-04-16T06:14:15.958Z,10.60
2023-04-16T06:16:46.077Z,7.32
2023-04-16T06:19:13.490Z,6.13
2023-04-16T06:21:40.759Z,8.35
2023-04-16T06:24:08.172Z,8.52
2023-04-16T06:26:35.241Z,13.95
2023-04-16T06:29:02.744Z,12.77
2023-04-16T06:31:30.474Z,9.82
2023-04-16T06:33:58.068Z,7.75
2023-04-16T06:36:29.119Z,7.82
2023-04-16T06:38:59.278Z,7.38
2023-04-16T06:41:26.808Z,10.32
2023-04-16T06:43:54.263Z,11.32
2023-04-16T06:46:21.392Z,10.88
2023-04-16T06:48:48.946Z,8.68
2023-04-16T06:51:18.819Z,8.90
2023-04-16T06:53:47.541Z,7.07
2023-04-16T06:56:14.644Z,7.70
2023-04-16T06:58:41.983Z,8.52
2023-04-16T07:01:10.173Z,6.68
2023-04-16T07:03:37.846Z,8.40
2023-04-16T07:06:05.144Z,11.18
2023-04-16T07:08:32.446Z,9.15
2023-04-16T07:10:59.598Z,10.27
2023-04-16T07:13:27.649Z,8.00
2023-04-16T07:15:54.893Z,9.20
2023-04-16T07:18:23.492Z,10.18
2023-04-16T07:20:51.073Z,8.32
2023-04-16T07:23:18.547Z,9.50
2023-04-16T07:25:46.047Z,7.43
2023-04-16T07:28:20.285Z,9.18
2023-04-16T07:30:47.764Z,8.98
2023-04-16T07:33:14.975Z,7.20
2023-04-16T07:35:42.271Z,10.07
2023-04-16T07:38:09.270Z,9.63
2023-04-16T07:40:37.568Z,10.20
2023-04-16T07:43:04.953Z,12.60
2023-04-16T07:45:32.402Z,10.20
2023-04-16T07:47:59.611Z,9.23
2023-04-16T07:50:30.569Z,9.00
2023-04-16T07:52:57.778Z,8.75
2023-04-16T07:55:25.413Z,9.20
2023-04-16T07:57:52.457Z,7.95
2023-04-16T08:00:19.873Z,12.90
2023-04-16T08:02:47.232Z,12.50
2023-04-16T08:05:14.831Z,10.38
2023-04-16T08:07:43.222Z,13.60
2023-04-16T08:10:11.105Z,10.98
2023-04-16T08:12:38.287Z,8.15
2023-04-16T08:15:06.691Z,7.82
2023-04-16T08:17:34.902Z,7.18
2023-04-16T08:20:02.414Z,15.77
2023-04-16T08:22:29.625Z,16.75
2023-04-16T08:24:57.086Z,6.63
2023-04-16T08:27:24.070Z,11.15
2023-04-16T08:29:51.512Z,15.02
2023-04-16T08:32:19.146Z,10.68
2023-04-16T08:34:47.900Z,7.00
2023-04-16T08:37:14.992Z,10.18
2023-04-16T08:39:42.338Z,5.80
2023-04-16T08:42:18.474Z,8.73
2023-04-16T08:44:49.635Z,12.45
2023-04-16T08:47:16.789Z,15.07
2023-04-16T08:49:47.514Z,10.00
2023-04-16T08:52:20.359Z,21.92
2023-04-16T08:55:03.772Z,6.45
2023-04-16T08:57:58.133Z,9.93
2023-04-16T09:00:25.835Z,11.77
2023-04-16T09:02:56.718Z,12.02
2023-04-16T09:05:26.347Z,10.63
2023-04-16T09:07:54.578Z,8.43
2023-04-16T09:10:24.985Z,12.20
2023-04-16T09:12:52.186Z,15.40
2023-04-16T09:15:21.298Z,9.60
2023-04-16T09:17:48.472Z,9.98
2023-04-16T09:20:16.078Z,15.77
2023-04-16T09:22:43.960Z,8.65
2023-04-16T09:25:11.754Z,16.38
2023-04-16T09:27:39.699Z,13.70
2023-04-16T09:30:27.286Z,17.45
2023-04-16T09:33:13.354Z,12.23
2023-04-16T09:35:56.933Z,16.40
2023-04-16T09:38:26.577Z,13.07
2023-04-16T09:41:09.312Z,12.25
2023-04-16T09:43:37.206Z,14.02
2023-04-16T09:46:08.308Z,14.43
2023-04-16T09:48:36.070Z,8.35
2023-04-16T09:51:06.752Z,7.35
2023-04-16T09:53:36.533Z,6.45
2023-04-16T09:56:06.432Z,17.83
2023-04-16T09:58:36.352Z,9.90
2023-04-16T10:01:07.623Z,12.65
2023-04-16T10:03:37.218Z,29.98
2023-04-16T10:06:08.217Z,25.45
2023-04-16T10:08:38.671Z,27.45
2023-04-16T10:11:06.364Z,29.42
2023-04-16T10:13:33.457Z,24.65
2023-04-16T10:16:01.225Z,14.80
2023-04-16T10:18:29.554Z,8.68
2023-04-16T10:21:02.824Z,16.15
2023-04-16T10:23:32.120Z,11.00
2023-04-16T10:26:01.051Z,28.73
2023-04-16T10:28:29.494Z,14.00
2023-04-16T10:30:58.398Z,8.35
2023-04-16T10:33:31.875Z,12.73
2023-04-16T10:36:30.318Z,7.65
2023-04-16T10:38:59.859Z,9.80
2023-04-16T10:41:27.624Z,10.60
2023-04-16T10:44:06.286Z,26.55
2023-04-16T10:46:37.721Z,16.98
2023-04-16T10:49:19.366Z,21.15
2023-04-16T10:52:19.288Z,53.35
2023-04-16T10:54:48.342Z,11.55
2023-04-16T10:57:18.066Z,10.98
2023-04-16T10:59:49.456Z,8.35
2023-04-16T11:02:18.781Z,23.15
2023-04-16T11:04:47.727Z,12.68
2023-04-16T11:07:20.736Z,14.00
2023-04-16T11:09:54.641Z,13.32
2023-04-16T11:12:27.764Z,12.48
2023-04-16T11:15:04.446Z,13.73
2023-04-16T11:17:43.108Z,26.70
2023-04-16T11:20:22.449Z,35.65
2023-04-16T11:22:51.487Z,39.58
2023-04-16T11:25:34.221Z,50.22
2023-04-16T11:28:02.669Z,34.90
2023-04-16T11:30:37.490Z,27.90
2023-04-16T11:33:11.929Z,13.00
2023-04-16T11:35:39.944Z,11.35
2023-04-16T11:38:10.658Z,13.07
2023-04-16T11:40:37.856Z,15.23
2023-04-16T11:43:14.133Z,12.02
2023-04-16T11:46:01.712Z,12.82
2023-04-16T11:48:48.074Z,16.30
2023-04-16T11:51:15.480Z,18.42
2023-04-16T11:53:53.557Z,15.77
2023-04-16T11:56:28.546Z,13.13
2023-04-16T11:59:23.166Z,27.63
2023-04-16T12:01:57.917Z,15.68
2023-04-16T12:04:27.296Z,12.35
2023-04-16T12:07:14.160Z,16.88
2023-04-16T12:09:43.998Z,82.93
2023-04-16T12:12:32.527Z,81.43
2023-04-16T12:15:03.412Z,33.05
2023-04-16T12:17:32.839Z,34.13
2023-04-16T12:20:02.509Z,22.05
2023-04-16T12:22:37.819Z,21.48
2023-04-16T12:25:12.152Z,17.98
2023-04-16T12:27:42.215Z,11.00
2023-04-16T12:30:09.995Z,20.80
2023-04-16T12:32:37.171Z,14.93
2023-04-16T12:35:05.278Z,13.82
2023-04-16T12:37:32.382Z,14.43
2023-04-16T12:39:59.834Z,30.70
2023-04-16T12:42:27.095Z,21.58
2023-04-16T12:44:56.632Z,13.13
2023-04-16T12:47:23.800Z,12.18
2023-04-16T12:49:52.322Z,15.77
2023-04-16T12:52:22.495Z,16.90
2023-04-16T12:54:51.363Z,14.02
2023-04-16T12:57:18.317Z,12.43
2023-04-16T12:59:47.141Z,21.92
2023-04-16T13:02:14.370Z,17.02
2023-04-16T13:04:41.869Z,11.25
2023-04-16T13:07:09.528Z,16.27
2023-04-16T13:09:39.618Z,18.38
2023-04-16T13:12:07.505Z,12.73
2023-04-16T13:14:34.902Z,12.93
2023-04-16T13:17:02.091Z,14.07
2023-04-16T13:19:30.005Z,12.32
2023-04-16T13:21:58.113Z,13.05
2023-04-16T13:24:28.287Z,22.27
2023-04-16T13:26:56.432Z,13.65
2023-04-16T13:29:23.752Z,13.27
2023-04-16T13:31:51.106Z,19.38
2023-04-16T13:34:18.472Z,20.05
2023-04-16T13:36:45.599Z,22.48
2023-04-16T13:39:13.274Z,17.25
2023-04-16T13:41:40.798Z,13.13
2023-04-16T13:44:09.556Z,11.27
2023-04-16T13:46:36.738Z,17.77
2023-04-16T13:49:04.138Z,13.05
2023-04-16T13:51:34.169Z,15.73
2023-04-16T13:54:01.652Z,13.52
2023-04-16T13:56:28.835Z,12.45
2023-04-16T13:58:56.308Z,9.70
2023-04-16T14:01:23.447Z,12.25
2023-04-16T14:03:51.060Z,12.48
2023-04-16T14:06:18.548Z,24.98
2023-04-16T14:08:46.200Z,16.25
2023-04-16T14:11:13.465Z,11.40
2023-04-16T14:13:41.555Z,13.52
2023-04-16T14:16:08.836Z,11.75
2023-04-16T14:18:41.013Z,13.63
2023-04-16T14:21:08.907Z,14.50
2023-04-16T14:23:36.264Z,20.15
2023-04-16T14:26:03.914Z,14.38
2023-04-16T14:28:31.684Z,11.35
2023-04-16T14:30:58.797Z,11.07
2023-04-16T14:33:26.767Z,9.98
2023-04-16T14:35:53.810Z,11.35
2023-04-16T14:38:21.331Z,15.63
2023-04-16T14:40:48.820Z,14.63
2023-04-16T14:43:16.615Z,13.32
2023-04-16T14:45:43.851Z,13.27
2023-04-16T14:48:11.466Z,19.23
2023-04-16T14:50:39.154Z,19.10
2023-04-16T14:53:09.181Z,13.95
2023-04-16T14:55:36.401Z,12.85
2023-04-16T14:58:04.133Z,22.77
2023-04-16T15:00:31.322Z,20.10
2023-04-16T15:03:00.080Z,14.50
2023-04-16T15:05:27.443Z,19.70
2023-04-16T15:07:55.246Z,15.85
2023-04-16T15:10:24.797Z,15.27
2023-04-16T15:12:55.808Z,13.40
2023-04-16T15:15:22.843Z,12.60
2023-04-16T15:17:51.876Z,14.48
2023-04-16T15:20:19.169Z,16.05
2023-04-16T15:22:49.004Z,16.75
2023-04-16T15:25:16.386Z,28.95
2023-04-16T15:27:43.745Z,22.38
2023-04-16T15:30:12.588Z,17.88
2023-04-16T15:32:39.952Z,18.10
2023-04-16T15:35:09.798Z,17.48
2023-04-16T15:37:38.937Z,12.63
2023-04-16T15:40:08.386Z,12.32
2023-04-16T15:42:41.369Z,11.75
2023-04-16T15:45:34.194Z,10.73
2023-04-16T15:48:01.902Z,16.75
2023-04-16T15:50:29.093Z,17.63
2023-04-16T15:52:56.550Z,28.65
2023-04-16T15:55:23.598Z,17.02
2023-04-16T15:57:51.357Z,13.18
2023-04-16T16:00:18.893Z,14.65
2023-04-16T16:02:49.572Z,12.15
2023-04-16T16:05:17.097Z,28.25
2023-04-16T16:07:44.809Z,18.08
2023-04-16T16:10:13.240Z,9.90
2023-04-16T16:12:41.337Z,8.30
2023-04-16T16:15:10.954Z,9.95
2023-04-16T16:17:39.117Z,19.67
2023-04-16T16:20:10.418Z,19.58
2023-04-16T16:22:39.260Z,19.48
2023-04-16T16:25:07.507Z,13.88
2023-04-16T16:27:36.227Z,11.15
2023-04-16T16:30:06.707Z,10.13
2023-04-16T16:32:34.389Z,9.65
2023-04-16T16:35:01.463Z,10.50
2023-04-16T16:37:29.225Z,11.35
2023-04-16T16:39:56.391Z,12.38
2023-04-16T16:42:23.812Z,12.00
2023-04-16T16:44:55.385Z,13.93
2023-04-16T16:47:24.773Z,12.95
2023-04-16T16:49:52.330Z,14.30
2023-04-16T16:52:23.345Z,16.38
2023-04-16T16:54:50.944Z,16.42
2023-04-16T16:57:19.423Z,16.73
2023-04-16T16:59:48.418Z,17.25
2023-04-16T17:02:18.911Z,16.70
2023-04-16T17:04:46.084Z,17.88
2023-04-16T17:07:13.544Z,21.73
2023-04-16T17:09:43.634Z,20.60
2023-04-16T17:12:11.200Z,18.60
2023-04-16T17:14:38.634Z,20.85
2023-04-16T17:17:06.115Z,24.98
2023-04-16T17:19:33.522Z,116.80
2023-04-16T17:22:05.065Z,54.80
2023-04-16T17:24:32.188Z,42.33
2023-04-16T17:26:59.597Z,44.03
2023-04-16T17:29:26.924Z,77.40
2023-04-16T17:31:54.288Z,101.85
2023-04-16T17:34:22.005Z,68.78
2023-04-16T17:36:50.666Z,113.70
2023-04-16T17:39:18.238Z,97.72
2023-04-16T17:41:54.161Z,80.93
2023-04-16T17:44:22.987Z,89.18
2023-04-16T17:46:50.446Z,40.88
2023-04-16T17:49:17.562Z,57.55
2023-04-16T17:51:45.573Z,48.67
2023-04-16T17:54:12.779Z,39.70
2023-04-16T17:56:40.429Z,47.35
2023-04-16T17:59:07.440Z,48.17
2023-04-16T18:01:34.966Z,35.55
2023-04-16T18:04:02.182Z,61.33
2023-04-16T18:06:29.994Z,27.30
2023-04-16T18:08:57.098Z,41.45
2023-04-16T18:11:25.751Z,21.80
2023-04-16T18:13:53.918Z,36.05
2023-04-16T18:16:22.515Z,26.33
2023-04-16T18:18:49.780Z,30.67
2023-04-16T18:21:17.203Z,85.93
2023-04-16T18:23:44.239Z,48.83
2023-04-16T18:26:12.671Z,32.45
2023-04-16T18:28:39.978Z,35.55
2023-04-16T18:31:07.871Z,37.80
2023-04-16T18:33:54.126Z,52.60
2023-04-16T18:36:22.700Z,34.47
2023-04-16T18:38:59.254Z,28.63
2023-04-16T18:41:29.560Z,28.77
2023-04-16T18:43:56.921Z,18.80
2023-04-16T18:46:25.290Z,25.98
2023-04-16T18:48:52.644Z,30.40
2023-04-16T18:51:20.077Z,39.60
2023-04-16T18:53:49.389Z,21.73
2023-04-16T18:56:16.878Z,22.70
2023-04-16T18:58:44.000Z,18.45
2023-04-16T19:01:13.513Z,31.70
2023-04-16T19:03:40.741Z,34.38
2023-04-16T19:06:08.372Z,16.63
2023-04-16T19:08:35.551Z,16.63
2023-04-16T19:11:02.922Z,13.57
2023-04-16T19:13:30.591Z,28.73
2023-04-16T19:16:02.049Z,35.75
2023-04-16T19:18:29.282Z,18.98
2023-04-16T19:21:00.653Z,12.55
2023-04-16T19:23:28.610Z,23.98
2023-04-16T19:25:57.017Z,20.45
2023-04-16T19:28:24.980Z,51.03
2023-04-16T19:30:56.108Z,44.17
2023-04-16T19:33:23.422Z,24.85
2023-04-16T19:35:50.710Z,56.75
2023-04-16T19:38:17.869Z,32.00
2023-04-16T19:40:49.456Z,58.33
2023-04-16T19:43:18.602Z,61.45
2023-04-16T19:45:47.089Z,59.03
2023-04-16T19:48:14.536Z,109.53
2023-04-16T19:50:42.718Z,80.10
2023-04-16T19:53:11.072Z,123.25
2023-04-16T19:55:42.190Z,69.00
2023-04-16T19:58:10.887Z,45.13
2023-04-16T20:00:40.939Z,35.53
2023-04-16T20:03:08.475Z,35.75
2023-04-16T20:05:36.018Z,37.60
2023-04-16T20:08:03.126Z,59.40
2023-04-16T20:10:33.498Z,98.03
2023-04-16T20:13:18.590Z,102.22
2023-04-16T20:15:54.411Z,61.00
2023-04-16T20:18:21.490Z,95.18
2023-04-16T20:20:49.030Z,99.03
2023-04-16T20:23:16.235Z,63.03
2023-04-16T20:25:44.040Z,74.70
2023-04-16T20:28:16.360Z,75.10
2023-04-16T20:30:44.029Z,81.75
2023-04-16T20:33:11.959Z,77.50
2023-04-16T20:35:42.595Z,51.40
2023-04-16T20:38:12.494Z,105.20
2023-04-16T20:40:44.702Z,36.20
2023-04-16T20:43:18.817Z,69.57
2023-04-16T20:45:46.459Z,53.17
2023-04-16T20:48:13.530Z,58.55
2023-04-16T20:50:41.543Z,41.20
2023-04-16T20:53:08.680Z,40.50
2023-04-16T20:55:36.149Z,54.35
2023-04-16T20:58:03.408Z,82.63
2023-04-16T21:00:30.704Z,32.83
2023-04-16T21:02:57.827Z,58.83
2023-04-16T21:05:26.576Z,37.40
2023-04-16T21:07:55.397Z,48.10
2023-04-16T21:10:23.204Z,29.00
2023-04-16T21:12:50.281Z,52.00
2023-04-16T21:15:17.591Z,30.35
2023-04-16T21:17:44.740Z,20.48
2023-04-16T21:20:13.645Z,20.15
2023-04-16T21:22:40.788Z,16.65
2023-04-16T21:25:08.826Z,15.38
2023-04-16T21:27:35.884Z,31.13
2023-04-16T21:30:03.340Z,56.20
2023-04-16T21:32:30.549Z,32.58
2023-04-16T21:34:58.156Z,36.88
2023-04-16T21:37:25.324Z,44.40
2023-04-16T21:39:52.806Z,35.38
2023-04-16T21:42:19.858Z,36.78
2023-04-16T21:44:47.356Z,23.92
2023-04-16T21:47:14.583Z,17.45
2023-04-16T21:49:42.441Z,16.60
2023-04-16T21:52:19.732Z,23.02
2023-04-16T21:54:50.962Z,20.90
2023-04-16T21:57:18.006Z,20.15
2023-04-16T21:59:45.398Z,44.30
2023-04-16T22:02:12.626Z,16.60
2023-04-16T22:04:40.274Z,13.98
2023-04-16T22:07:11.876Z,14.88
2023-04-16T22:09:41.629Z,31.55
2023-04-16T22:12:12.010Z,47.85
2023-04-16T22:14:46.255Z,30.35
2023-04-16T22:17:17.298Z,20.52
2023-04-16T22:19:44.750Z,20.73
2023-04-16T22:22:11.886Z,19.35
2023-04-16T22:24:39.328Z,15.35
2023-04-16T22:27:06.706Z,17.70
2023-04-16T22:29:37.131Z,23.83
2023-04-16T22:32:06.398Z,51.20
2023-04-16T22:34:33.904Z,64.63
2023-04-16T22:37:03.057Z,56.30
2023-04-16T22:39:31.600Z,73.00
2023-04-16T22:41:58.909Z,62.65
2023-04-16T22:44:25.881Z,44.50
2023-04-16T22:46:53.690Z,41.78
2023-04-16T22:49:20.815Z,31.63
2023-04-16T22:51:48.046Z,59.53
2023-04-16T22:54:15.224Z,31.05
2023-04-16T22:56:42.750Z,54.22
2023-04-16T22:59:09.941Z,34.53
2023-04-16T23:01:37.630Z,40.50
2023-04-16T23:04:04.872Z,58.92
2023-04-16T23:06:32.283Z,26.80
2023-04-16T23:08:59.358Z,50.65
2023-04-16T23:11:26.653Z,34.97
2023-04-16T23:13:53.955Z,21.77
2023-04-16T23:16:21.463Z,19.33
2023-04-16T23:18:48.614Z,20.35
2023-04-16T23:21:16.171Z,24.83
2023-04-16T23:23:43.299Z,24.05
2023-04-16T23:26:10.572Z,19.85
2023-04-16T23:28:37.571Z,17.55
2023-04-16T23:31:07.241Z,18.17
2023-04-16T23:33:34.691Z,28.45
2023-04-16T23:36:02.144Z,29.80
2023-04-16T23:38:29.293Z,19.15
2023-04-16T23:40:56.620Z,18.58
2023-04-16T23:43:23.689Z,15.48
2023-04-16T23:45:51.024Z,14.65
2023-04-16T23:48:18.037Z,16.58
2023-04-16T23:50:45.434Z,14.55
2023-04-16T23:53:15.527Z,18.35
2023-04-16T23:55:42.920Z,13.25
2023-04-16T23:58:09.985Z,16.63
